Time;durP1;ratioP1;P1;durP2;ratioP2;P2;SDS_P1;SDS_P2;PMS_P1;PMS_P2;Temp;Humidity;BMP_temperature;BMP_pressure;BME280_temperature;BME280_humidity;BME280_pressure;Samples;Min_cycle;Max_cycle;Signal;HPM_P1;HPM_P2
2021/01/22 00:01:47;;;;;;;12.60;9.17;;;;;;;;;;5062024;28;20470;-73
2021/01/22 00:04:14;;;;;;;13.43;10.13;;;;;;;;;;5067836;28;20448;-72
2021/01/22 00:06:41;;;;;;;12.03;10.10;;;;;;;;;;5056499;28;20442;-73
2021/01/22 00:09:07;;;;;;;13.53;10.17;;;;;;;;;;5055438;28;20461;-72
2021/01/22 00:11:35;;;;;;;11.70;10.00;;;;;;;;;;5067116;28;20471;-73
2021/01/22 00:14:02;;;;;;;12.37;9.63;;;;;;;;;;5068763;28;20514;-72
2021/01/22 00:16:28;;;;;;;11.83;9.13;;;;;;;;;;5065740;28;20458;-73
2021/01/22 00:18:55;;;;;;;11.40;10.10;;;;;;;;;;5063051;28;20459;-73
2021/01/22 00:21:21;;;;;;;10.10;8.20;;;;;;;;;;5060254;28;20853;-73
2021/01/22 00:23:48;;;;;;;12.87;7.60;;;;;;;;;;5055425;28;20457;-73
2021/01/22 00:26:15;;;;;;;8.37;6.60;;;;;;;;;;5063890;28;20962;-73
2021/01/22 00:28:42;;;;;;;8.70;7.30;;;;;;;;;;5060656;28;20510;-73
2021/01/22 00:31:09;;;;;;;8.53;6.50;;;;;;;;;;5057584;28;20481;-73
2021/01/22 00:33:35;;;;;;;9.43;6.40;;;;;;;;;;5078375;28;20467;-73
2021/01/22 00:36:02;;;;;;;9.93;7.53;;;;;;;;;;5065593;28;20802;-73
2021/01/22 00:38:28;;;;;;;9.80;7.30;;;;;;;;;;5064945;28;20469;-73
2021/01/22 00:40:55;;;;;;;10.20;8.20;;;;;;;;;;5062352;28;20465;-73
2021/01/22 00:43:22;;;;;;;10.07;7.90;;;;;;;;;;5066088;28;20450;-72
2021/01/22 00:45:49;;;;;;;8.00;7.20;;;;;;;;;;5061795;28;21208;-73
2021/01/22 00:48:16;;;;;;;9.60;7.80;;;;;;;;;;5066578;28;20975;-73
2021/01/22 00:50:42;;;;;;;8.13;7.33;;;;;;;;;;5065755;28;20461;-73
2021/01/22 00:53:09;;;;;;;7.87;7.07;;;;;;;;;;5065012;28;20487;-73
2021/01/22 00:55:36;;;;;;;8.40;6.37;;;;;;;;;;5069071;28;20591;-72
2021/01/22 00:58:03;;;;;;;8.40;7.20;;;;;;;;;;5065446;28;20966;-73
2021/01/22 01:00:29;;;;;;;9.77;7.67;;;;;;;;;;5061442;28;20477;-73
2021/01/22 01:02:57;;;;;;;9.60;6.90;;;;;;;;;;5066689;28;20449;-73
2021/01/22 01:05:23;;;;;;;7.50;6.40;;;;;;;;;;5057715;28;20457;-73
2021/01/22 01:07:50;;;;;;;8.30;6.60;;;;;;;;;;5063702;28;20549;-73
2021/01/22 01:10:17;;;;;;;6.80;5.07;;;;;;;;;;5060135;28;20822;-73
2021/01/22 01:12:43;;;;;;;4.50;3.43;;;;;;;;;;5057445;28;20446;-73
2021/01/22 01:15:10;;;;;;;3.37;2.20;;;;;;;;;;5070305;28;20489;-72
2021/01/22 01:17:37;;;;;;;2.33;1.20;;;;;;;;;;5067572;28;20463;-73
2021/01/22 01:20:05;;;;;;;1.70;1.00;;;;;;;;;;5065856;28;20450;-73
2021/01/22 01:22:32;;;;;;;1.83;1.10;;;;;;;;;;5059735;28;20811;-73
2021/01/22 01:24:58;;;;;;;1.40;0.90;;;;;;;;;;5068823;28;20457;-72
2021/01/22 01:27:25;;;;;;;1.40;0.90;;;;;;;;;;5064531;28;20457;-71
2021/01/22 01:29:52;;;;;;;1.30;1.00;;;;;;;;;;5061040;28;20445;-71
2021/01/22 01:32:18;;;;;;;1.07;0.83;;;;;;;;;;5074103;28;20469;-72
2021/01/22 01:34:45;;;;;;;1.20;0.80;;;;;;;;;;5071785;28;20477;-72
2021/01/22 01:37:12;;;;;;;1.00;0.67;;;;;;;;;;5071325;28;20495;-72
2021/01/22 01:39:39;;;;;;;1.87;1.00;;;;;;;;;;5073602;28;20454;-72
2021/01/22 01:42:06;;;;;;;1.57;1.03;;;;;;;;;;5074250;28;20464;-71
2021/01/22 01:44:32;;;;;;;2.93;1.03;;;;;;;;;;5061581;28;20456;-71
2021/01/22 01:46:59;;;;;;;1.50;0.90;;;;;;;;;;5067839;28;20448;-72
2021/01/22 01:49:26;;;;;;;1.57;1.00;;;;;;;;;;5068185;28;20458;-71
2021/01/22 01:51:52;;;;;;;1.47;1.10;;;;;;;;;;5063682;28;20514;-72
2021/01/22 01:54:21;;;;;;;1.67;1.30;;;;;;;;;;5061911;28;20478;-72
2021/01/22 01:56:47;;;;;;;4.00;1.10;;;;;;;;;;5052336;28;20461;-71
2021/01/22 01:59:15;;;;;;;1.63;1.10;;;;;;;;;;5065749;28;20465;-70
2021/01/22 02:01:42;;;;;;;2.53;1.20;;;;;;;;;;5066385;28;20472;-70
2021/01/22 02:04:08;;;;;;;2.67;1.40;;;;;;;;;;5060519;28;20453;-70
2021/01/22 02:06:35;;;;;;;4.17;1.73;;;;;;;;;;5066424;28;20453;-71
2021/01/22 02:09:02;;;;;;;3.47;1.63;;;;;;;;;;5063343;28;20834;-71
2021/01/22 02:11:30;;;;;;;2.50;1.50;;;;;;;;;;5069703;28;20476;-70
2021/01/22 02:13:57;;;;;;;1.80;1.43;;;;;;;;;;5063711;28;20484;-70
2021/01/22 02:16:25;;;;;;;1.53;1.40;;;;;;;;;;5065966;28;20449;-70
2021/01/22 02:18:53;;;;;;;1.93;1.33;;;;;;;;;;5062037;28;20449;-71
2021/01/22 02:21:25;;;;;;;2.83;2.00;;;;;;;;;;5065918;28;20479;-71
2021/01/22 02:23:53;;;;;;;4.50;1.50;;;;;;;;;;5060819;28;20502;-72
2021/01/22 02:26:23;;;;;;;3.03;1.40;;;;;;;;;;5062373;28;20456;-72
2021/01/22 02:28:53;;;;;;;5.53;1.87;;;;;;;;;;5070238;28;20510;-71
2021/01/22 02:31:20;;;;;;;3.30;1.30;;;;;;;;;;5061665;28;20481;-70
2021/01/22 02:33:48;;;;;;;1.80;1.20;;;;;;;;;;5062282;28;20468;-70
2021/01/22 02:36:15;;;;;;;2.77;1.67;;;;;;;;;;5059197;28;20961;-70
2021/01/22 02:38:42;;;;;;;3.37;1.37;;;;;;;;;;5073114;28;20459;-70
2021/01/22 02:41:10;;;;;;;3.20;1.50;;;;;;;;;;5060702;28;20457;-70
2021/01/22 02:43:37;;;;;;;3.00;1.43;;;;;;;;;;5066990;28;20953;-71
2021/01/22 02:46:05;;;;;;;3.73;1.47;;;;;;;;;;5057018;28;20450;-70
2021/01/22 02:48:33;;;;;;;1.83;1.63;;;;;;;;;;5070680;28;20859;-70
2021/01/22 02:51:00;;;;;;;2.63;1.53;;;;;;;;;;5066600;28;20473;-70
2021/01/22 02:53:26;;;;;;;1.80;1.13;;;;;;;;;;5064827;28;20504;-69
2021/01/22 02:55:56;;;;;;;1.73;1.27;;;;;;;;;;5056094;28;21043;-70
2021/01/22 02:58:26;;;;;;;1.83;1.27;;;;;;;;;;5068298;28;20453;-70
2021/01/22 03:00:56;;;;;;;2.53;1.37;;;;;;;;;;5062301;28;20865;-70
2021/01/22 03:03:30;;;;;;;1.53;1.10;;;;;;;;;;5061819;28;20466;-70
2021/01/22 03:05:58;;;;;;;3.03;1.37;;;;;;;;;;5055485;28;20569;-70
2021/01/22 03:08:27;;;;;;;1.83;1.43;;;;;;;;;;5053464;28;20829;-70
2021/01/22 03:10:54;;;;;;;3.50;1.30;;;;;;;;;;5057047;28;20478;-70
2021/01/22 03:13:21;;;;;;;2.27;1.00;;;;;;;;;;5061676;28;20453;-70
2021/01/22 03:15:48;;;;;;;1.70;1.30;;;;;;;;;;5054929;28;20500;-69
2021/01/22 03:18:16;;;;;;;2.10;1.03;;;;;;;;;;5059929;28;20453;-69
2021/01/22 03:20:45;;;;;;;1.70;1.30;;;;;;;;;;5062341;28;20472;-69
2021/01/22 03:23:13;;;;;;;1.90;1.60;;;;;;;;;;5057410;28;20839;-70
2021/01/22 03:25:39;;;;;;;1.40;1.00;;;;;;;;;;5063825;28;20457;-70
2021/01/22 03:28:06;;;;;;;1.93;1.13;;;;;;;;;;5064089;28;20992;-70
2021/01/22 03:30:33;;;;;;;2.70;1.40;;;;;;;;;;5064451;28;20495;-69
2021/01/22 03:33:00;;;;;;;2.33;1.30;;;;;;;;;;5065182;28;20471;-69
2021/01/22 03:35:27;;;;;;;1.77;1.27;;;;;;;;;;5063769;28;20484;-69
2021/01/22 03:37:54;;;;;;;4.90;1.60;;;;;;;;;;5049137;28;21391;-69
2021/01/22 03:40:21;;;;;;;2.20;1.20;;;;;;;;;;5060109;28;20472;-69
2021/01/22 03:42:47;;;;;;;2.30;1.47;;;;;;;;;;5066204;28;20449;-69
2021/01/22 03:45:15;;;;;;;2.47;1.27;;;;;;;;;;5057726;28;20500;-69
2021/01/22 03:47:41;;;;;;;2.07;1.27;;;;;;;;;;5064267;28;20493;-69
2021/01/22 03:50:09;;;;;;;5.93;2.30;;;;;;;;;;5070485;28;20463;-69
2021/01/22 03:52:35;;;;;;;1.80;1.30;;;;;;;;;;5061351;28;20460;-69
2021/01/22 03:55:03;;;;;;;2.23;1.30;;;;;;;;;;5071724;28;21015;-68
2021/01/22 03:57:29;;;;;;;5.70;1.60;;;;;;;;;;5059373;28;20451;-69
2021/01/22 03:59:56;;;;;;;2.13;1.40;;;;;;;;;;5059343;28;20450;-69
2021/01/22 04:02:24;;;;;;;3.00;1.70;;;;;;;;;;5059725;28;20477;-69
2021/01/22 04:04:50;;;;;;;2.20;1.70;;;;;;;;;;5066858;28;20910;-69
2021/01/22 04:07:17;;;;;;;2.00;1.10;;;;;;;;;;5057190;28;20466;-68
2021/01/22 04:09:44;;;;;;;1.77;1.27;;;;;;;;;;5059944;28;20457;-68
2021/01/22 04:12:11;;;;;;;3.53;1.30;;;;;;;;;;5060060;28;20466;-69
2021/01/22 04:14:38;;;;;;;1.80;1.37;;;;;;;;;;5064883;28;20477;-69
2021/01/22 04:17:04;;;;;;;1.30;1.00;;;;;;;;;;5064239;28;20445;-69
2021/01/22 04:19:31;;;;;;;2.30;1.40;;;;;;;;;;5063382;28;20454;-68
2021/01/22 04:21:58;;;;;;;2.20;1.20;;;;;;;;;;5061885;28;20476;-69
2021/01/22 04:24:24;;;;;;;3.60;1.83;;;;;;;;;;5062951;28;21138;-69
2021/01/22 04:26:51;;;;;;;5.17;1.37;;;;;;;;;;5062661;28;20453;-68
2021/01/22 04:29:19;;;;;;;1.50;1.10;;;;;;;;;;5064368;28;20883;-68
2021/01/22 04:31:45;;;;;;;2.63;1.20;;;;;;;;;;5059175;28;20528;-68
2021/01/22 04:34:12;;;;;;;2.53;1.40;;;;;;;;;;5060955;28;20478;-69
2021/01/22 04:36:39;;;;;;;1.50;1.00;;;;;;;;;;5059423;28;20461;-69
2021/01/22 04:39:06;;;;;;;4.47;0.83;;;;;;;;;;5060000;28;20461;-68
2021/01/22 04:41:33;;;;;;;2.60;1.23;;;;;;;;;;5063106;28;20545;-69
2021/01/22 04:44:00;;;;;;;1.40;1.07;;;;;;;;;;5056019;28;20997;-69
2021/01/22 04:46:28;;;;;;;2.80;1.00;;;;;;;;;;5061626;28;20963;-69
2021/01/22 04:48:55;;;;;;;1.90;1.20;;;;;;;;;;5064385;28;20464;-69
2021/01/22 04:51:25;;;;;;;2.17;1.00;;;;;;;;;;5059523;28;20483;-69
2021/01/22 04:53:54;;;;;;;2.03;1.17;;;;;;;;;;5061676;28;20989;-69
2021/01/22 04:56:22;;;;;;;1.90;0.90;;;;;;;;;;5057250;28;20442;-69
2021/01/22 04:58:53;;;;;;;2.23;1.20;;;;;;;;;;5062982;28;20441;-69
2021/01/22 05:01:21;;;;;;;5.70;1.33;;;;;;;;;;5058581;28;20470;-68
2021/01/22 05:03:49;;;;;;;2.40;1.10;;;;;;;;;;5055552;28;20450;-69
2021/01/22 05:06:15;;;;;;;2.30;1.27;;;;;;;;;;5059717;28;20461;-68
2021/01/22 05:08:42;;;;;;;1.83;1.00;;;;;;;;;;5056472;28;20464;-69
2021/01/22 05:11:09;;;;;;;4.30;1.20;;;;;;;;;;5074339;22;20499;-69
2021/01/22 05:13:37;;;;;;;5.03;1.30;;;;;;;;;;5067073;28;20468;-68
2021/01/22 05:16:11;;;;;;;3.50;2.03;;;;;;;;;;5055572;28;20482;-68
2021/01/22 05:18:37;;;;;;;2.70;1.50;;;;;;;;;;5066379;28;20448;-68
2021/01/22 05:21:08;;;;;;;2.47;1.10;;;;;;;;;;5058263;28;20484;-68
2021/01/22 05:23:37;;;;;;;2.20;1.10;;;;;;;;;;5064012;28;20957;-68
2021/01/22 05:26:06;;;;;;;3.60;1.10;;;;;;;;;;5060845;28;21003;-68
2021/01/22 05:28:34;;;;;;;4.33;1.20;;;;;;;;;;5066392;28;20457;-69
2021/01/22 05:31:01;;;;;;;2.20;0.90;;;;;;;;;;5063355;28;20507;-69
2021/01/22 05:33:28;;;;;;;1.90;1.23;;;;;;;;;;5059583;28;20506;-69
2021/01/22 05:35:54;;;;;;;4.00;1.50;;;;;;;;;;5061525;28;20477;-68
2021/01/22 05:38:36;;;;;;;4.10;1.40;;;;;;;;;;5062170;28;20492;-69
2021/01/22 05:41:06;;;;;;;2.00;1.20;;;;;;;;;;5060608;28;20465;-69
2021/01/22 05:43:35;;;;;;;1.70;0.93;;;;;;;;;;5059797;28;20456;-69
2021/01/22 05:46:01;;;;;;;2.30;1.10;;;;;;;;;;5057454;28;20441;-69
2021/01/22 05:48:28;;;;;;;2.60;1.40;;;;;;;;;;5054136;28;20844;-69
2021/01/22 05:50:56;;;;;;;2.33;1.00;;;;;;;;;;5054986;28;20465;-68
2021/01/22 05:53:23;;;;;;;7.30;1.80;;;;;;;;;;5051412;28;20497;-68
2021/01/22 05:56:04;;;;;;;2.07;1.23;;;;;;;;;;5049808;28;20484;-69
2021/01/22 05:58:32;;;;;;;1.97;1.10;;;;;;;;;;5053205;28;20441;-69
2021/01/22 06:01:08;;;;;;;2.47;1.57;;;;;;;;;;5054849;28;20492;-69
2021/01/22 06:03:35;;;;;;;3.50;1.47;;;;;;;;;;5050685;28;20457;-69
2021/01/22 06:06:02;;;;;;;4.20;1.33;;;;;;;;;;5057374;28;20503;-69
2021/01/22 06:08:29;;;;;;;2.50;1.47;;;;;;;;;;5059358;28;20457;-68
2021/01/22 06:10:56;;;;;;;5.90;1.40;;;;;;;;;;5061139;28;20487;-69
2021/01/22 06:13:25;;;;;;;5.27;1.50;;;;;;;;;;5060220;28;20475;-69
2021/01/22 06:15:55;;;;;;;3.20;1.63;;;;;;;;;;5058775;28;20544;-69
2021/01/22 06:18:24;;;;;;;3.10;1.80;;;;;;;;;;5061428;28;20449;-67
2021/01/22 06:20:54;;;;;;;8.87;2.03;;;;;;;;;;5056050;28;20488;-69
2021/01/22 06:23:21;;;;;;;1.63;1.30;;;;;;;;;;5065095;28;20498;-68
2021/01/22 06:25:47;;;;;;;2.77;1.80;;;;;;;;;;5051658;28;20457;-71
2021/01/22 06:28:14;;;;;;;3.90;1.50;;;;;;;;;;5064102;28;20792;-70
2021/01/22 06:30:41;;;;;;;3.23;1.67;;;;;;;;;;5053508;28;20480;-70
2021/01/22 06:33:09;;;;;;;4.30;1.40;;;;;;;;;;5065026;28;20835;-70
2021/01/22 06:35:36;;;;;;;3.70;1.63;;;;;;;;;;5061538;28;20480;-70
2021/01/22 06:38:04;;;;;;;2.07;1.37;;;;;;;;;;5059064;28;20480;-71
2021/01/22 06:40:31;;;;;;;4.10;1.23;;;;;;;;;;5060294;28;21108;-70
2021/01/22 06:42:57;;;;;;;4.60;1.70;;;;;;;;;;5065861;28;20494;-70
2021/01/22 06:45:25;;;;;;;2.60;1.47;;;;;;;;;;5069907;28;20881;-71
2021/01/22 06:48:01;;;;;;;3.87;1.47;;;;;;;;;;5065234;28;20963;-70
2021/01/22 06:50:29;;;;;;;3.23;1.80;;;;;;;;;;5062956;28;20469;-69
2021/01/22 06:53:09;;;;;;;2.67;1.30;;;;;;;;;;5058390;28;20461;-70
2021/01/22 06:55:51;;;;;;;5.07;2.20;;;;;;;;;;5064824;28;21025;-69
2021/01/22 06:58:24;;;;;;;5.23;1.53;;;;;;;;;;5060407;28;20453;-68
2021/01/22 07:00:52;;;;;;;1.93;1.37;;;;;;;;;;5063255;28;20485;-72
2021/01/22 07:03:37;;;;;;;5.37;1.30;;;;;;;;;;5061550;28;20464;-68
2021/01/22 07:06:05;;;;;;;2.03;1.40;;;;;;;;;;5064127;28;20444;-69
2021/01/22 07:08:50;;;;;;;2.83;1.33;;;;;;;;;;5065592;28;21091;-68
2021/01/22 07:11:17;;;;;;;7.23;2.20;;;;;;;;;;5061289;28;20495;-69
2021/01/22 07:13:46;;;;;;;3.43;1.67;;;;;;;;;;5064542;28;20487;-69
2021/01/22 07:16:23;;;;;;;2.30;1.17;;;;;;;;;;5061755;28;20487;-69
2021/01/22 07:18:51;;;;;;;8.70;2.57;;;;;;;;;;5070416;28;20452;-70
2021/01/22 07:21:25;;;;;;;2.07;1.50;;;;;;;;;;5065330;28;20513;-70
2021/01/22 07:23:52;;;;;;;6.10;1.53;;;;;;;;;;5064621;28;20548;-69
2021/01/22 07:26:18;;;;;;;3.00;1.40;;;;;;;;;;5067727;28;20511;-70
2021/01/22 07:28:52;;;;;;;2.80;1.80;;;;;;;;;;5069744;28;20452;-70
2021/01/22 07:31:33;;;;;;;1.70;1.50;;;;;;;;;;5059530;28;20481;-70
2021/01/22 07:34:00;;;;;;;3.83;1.50;;;;;;;;;;5069160;28;20861;-70
2021/01/22 07:36:27;;;;;;;1.73;1.03;;;;;;;;;;5060218;28;20460;-69
2021/01/22 07:38:54;;;;;;;3.80;1.33;;;;;;;;;;5067744;28;20449;-70
2021/01/22 07:41:22;;;;;;;3.80;1.40;;;;;;;;;;5061629;28;20604;-70
2021/01/22 07:43:59;;;;;;;4.30;1.10;;;;;;;;;;5062970;28;20511;-68
2021/01/22 07:46:27;;;;;;;4.60;1.30;;;;;;;;;;5064056;28;20838;-70
2021/01/22 07:48:53;;;;;;;2.10;1.27;;;;;;;;;;5067961;28;20449;-69
2021/01/22 07:51:31;;;;;;;2.80;1.23;;;;;;;;;;5062686;28;20566;-71
2021/01/22 07:53:58;;;;;;;2.73;1.77;;;;;;;;;;5060081;28;20462;-69
2021/01/22 07:56:32;;;;;;;2.60;1.30;;;;;;;;;;5062280;28;20488;-71
2021/01/22 07:58:59;;;;;;;1.90;1.30;;;;;;;;;;5066992;28;20456;-70
2021/01/22 08:01:25;;;;;;;2.80;1.40;;;;;;;;;;5059487;28;20492;-70
2021/01/22 08:03:52;;;;;;;3.50;1.47;;;;;;;;;;5063764;28;20460;-69
2021/01/22 08:06:18;;;;;;;2.03;1.53;;;;;;;;;;5061443;28;20470;-71
2021/01/22 08:08:46;;;;;;;2.57;2.03;;;;;;;;;;5064807;28;20460;-68
2021/01/22 08:11:19;;;;;;;3.13;1.97;;;;;;;;;;5063940;28;20483;-69
2021/01/22 08:13:46;;;;;;;3.77;2.40;;;;;;;;;;5064081;28;20520;-69
2021/01/22 08:16:12;;;;;;;4.63;2.17;;;;;;;;;;5066531;28;20495;-69
2021/01/22 08:18:45;;;;;;;4.37;2.17;;;;;;;;;;5061767;28;20517;-69
2021/01/22 08:21:12;;;;;;;2.50;1.77;;;;;;;;;;5062972;28;20477;-69
2021/01/22 08:23:42;;;;;;;2.50;1.90;;;;;;;;;;5062632;28;20600;-68
2021/01/22 08:26:10;;;;;;;2.50;2.00;;;;;;;;;;5065285;28;20528;-68
2021/01/22 08:28:38;;;;;;;5.03;2.00;;;;;;;;;;5067324;28;20453;-69
2021/01/22 08:31:06;;;;;;;1.60;1.33;;;;;;;;;;5059447;28;20484;-69
2021/01/22 08:33:33;;;;;;;6.07;2.60;;;;;;;;;;5066511;28;20441;-70
2021/01/22 08:36:00;;;;;;;2.47;1.70;;;;;;;;;;5056998;28;20481;-68
2021/01/22 08:38:27;;;;;;;3.93;1.33;;;;;;;;;;5066079;28;20456;-71
2021/01/22 08:40:54;;;;;;;1.80;1.47;;;;;;;;;;5058091;28;20481;-69
2021/01/22 08:43:21;;;;;;;3.20;1.60;;;;;;;;;;5064817;28;20451;-69
2021/01/22 08:46:04;;;;;;;2.03;1.13;;;;;;;;;;5065028;28;20535;-70
2021/01/22 08:48:31;;;;;;;2.37;1.40;;;;;;;;;;5064027;28;20444;-70
2021/01/22 08:50:58;;;;;;;1.60;1.10;;;;;;;;;;5063919;28;20477;-69
2021/01/22 08:53:25;;;;;;;3.73;1.50;;;;;;;;;;5057041;28;20444;-70
2021/01/22 08:55:52;;;;;;;2.00;1.20;;;;;;;;;;5063298;28;20996;-70
2021/01/22 08:58:18;;;;;;;4.03;1.57;;;;;;;;;;5068312;28;20457;-70
2021/01/22 09:00:54;;;;;;;2.43;1.67;;;;;;;;;;5061546;28;20481;-69
2021/01/22 09:03:21;;;;;;;3.63;1.60;;;;;;;;;;5061585;28;20448;-73
2021/01/22 09:05:51;;;;;;;4.53;1.47;;;;;;;;;;5062979;28;20437;-72
2021/01/22 09:08:19;;;;;;;2.03;1.20;;;;;;;;;;5064088;28;20554;-70
2021/01/22 09:10:46;;;;;;;1.60;1.33;;;;;;;;;;5066340;28;20472;-69
2021/01/22 09:13:13;;;;;;;2.07;1.30;;;;;;;;;;5066617;28;20453;-70
2021/01/22 09:15:40;;;;;;;4.20;2.80;;;;;;;;;;5063049;28;20485;-70
2021/01/22 09:18:17;;;;;;;5.13;3.00;;;;;;;;;;5064763;28;20455;-70
2021/01/22 09:20:44;;;;;;;2.70;1.33;;;;;;;;;;5066950;28;20996;-70
2021/01/22 09:23:11;;;;;;;3.43;1.37;;;;;;;;;;5063677;28;20664;-70
2021/01/22 09:25:38;;;;;;;2.60;1.43;;;;;;;;;;5055461;28;20468;-70
2021/01/22 09:28:05;;;;;;;2.03;1.30;;;;;;;;;;5061888;28;20445;-71
2021/01/22 09:30:32;;;;;;;2.00;1.37;;;;;;;;;;5059020;28;21756;-70
2021/01/22 09:32:59;;;;;;;2.00;1.40;;;;;;;;;;5058385;28;20447;-70
2021/01/22 09:35:28;;;;;;;5.43;1.70;;;;;;;;;;5057039;28;20866;-71
2021/01/22 09:37:55;;;;;;;3.07;1.70;;;;;;;;;;5061386;28;20453;-70
2021/01/22 09:40:22;;;;;;;3.90;2.00;;;;;;;;;;5060058;28;20453;-71
2021/01/22 09:42:49;;;;;;;5.90;2.17;;;;;;;;;;5065685;28;20834;-70
2021/01/22 09:45:16;;;;;;;2.93;1.60;;;;;;;;;;5063369;28;20459;-70
2021/01/22 09:47:43;;;;;;;2.60;1.50;;;;;;;;;;5063112;28;20506;-70
2021/01/22 09:50:10;;;;;;;3.50;1.90;;;;;;;;;;5062733;28;20975;-72
2021/01/22 09:52:38;;;;;;;2.87;1.70;;;;;;;;;;5060784;28;20468;-71
2021/01/22 09:55:06;;;;;;;2.57;1.63;;;;;;;;;;5053274;28;20480;-71
2021/01/22 09:57:33;;;;;;;2.20;1.40;;;;;;;;;;5064114;28;20464;-70
2021/01/22 09:59:59;;;;;;;2.20;1.60;;;;;;;;;;5064065;28;20445;-69
2021/01/22 10:02:26;;;;;;;2.97;1.87;;;;;;;;;;5063999;28;20538;-69
2021/01/22 10:04:52;;;;;;;2.90;1.70;;;;;;;;;;5063505;28;20459;-70
2021/01/22 10:07:19;;;;;;;1.60;1.30;;;;;;;;;;5058414;28;20464;-70
2021/01/22 10:09:46;;;;;;;1.90;1.47;;;;;;;;;;5053345;28;20832;-71
2021/01/22 10:12:13;;;;;;;2.83;1.53;;;;;;;;;;5065598;28;20472;-71
2021/01/22 10:14:39;;;;;;;3.30;1.87;;;;;;;;;;5064566;28;20846;-71
2021/01/22 10:17:06;;;;;;;3.10;1.77;;;;;;;;;;5061817;28;20449;-71
2021/01/22 10:19:33;;;;;;;3.57;1.97;;;;;;;;;;5062360;28;21066;-72
2021/01/22 10:21:59;;;;;;;2.37;1.40;;;;;;;;;;5058888;28;20575;-72
2021/01/22 10:24:26;;;;;;;2.07;1.67;;;;;;;;;;5060931;28;20437;-71
2021/01/22 10:26:53;;;;;;;1.90;1.70;;;;;;;;;;5063667;28;20442;-71
2021/01/22 10:29:20;;;;;;;2.80;1.50;;;;;;;;;;5064355;28;20452;-71
2021/01/22 10:31:46;;;;;;;4.30;1.30;;;;;;;;;;5058965;28;20862;-71
2021/01/22 10:34:13;;;;;;;4.63;1.90;;;;;;;;;;5067088;28;20445;-71
2021/01/22 10:36:40;;;;;;;2.17;1.67;;;;;;;;;;5065409;28;20670;-71
2021/01/22 10:39:06;;;;;;;1.90;1.60;;;;;;;;;;5068952;28;20448;-71
2021/01/22 10:41:33;;;;;;;2.73;1.57;;;;;;;;;;5065611;28;20475;-71
2021/01/22 10:44:01;;;;;;;1.70;1.30;;;;;;;;;;5068024;28;20453;-71
2021/01/22 10:46:28;;;;;;;2.33;1.10;;;;;;;;;;5070608;28;20479;-70
2021/01/22 10:48:55;;;;;;;2.03;1.30;;;;;;;;;;5067788;28;20449;-70
2021/01/22 10:51:22;;;;;;;1.70;1.23;;;;;;;;;;5063255;28;20520;-72
2021/01/22 10:53:49;;;;;;;1.90;1.50;;;;;;;;;;5065483;28;20492;-71
2021/01/22 10:56:15;;;;;;;13.13;1.73;;;;;;;;;;5061964;28;20565;-71
2021/01/22 10:58:42;;;;;;;1.70;1.20;;;;;;;;;;5066074;28;20481;-71
2021/01/22 11:01:09;;;;;;;9.13;1.47;;;;;;;;;;5066123;28;20487;-71
2021/01/22 11:03:38;;;;;;;2.80;1.43;;;;;;;;;;5064367;28;20457;-71
2021/01/22 11:06:06;;;;;;;2.20;1.60;;;;;;;;;;5062149;28;20618;-69
2021/01/22 11:08:32;;;;;;;2.47;1.50;;;;;;;;;;5067187;28;20451;-70
2021/01/22 11:10:59;;;;;;;3.97;1.10;;;;;;;;;;5061666;28;20863;-71
2021/01/22 11:13:25;;;;;;;1.60;1.20;;;;;;;;;;5068134;28;20453;-70
2021/01/22 11:15:52;;;;;;;1.80;1.30;;;;;;;;;;5067977;28;20480;-71
2021/01/22 11:18:19;;;;;;;3.73;1.43;;;;;;;;;;5065515;28;20510;-72
2021/01/22 11:20:46;;;;;;;1.87;1.10;;;;;;;;;;5065274;28;20512;-71
2021/01/22 11:23:13;;;;;;;2.03;1.23;;;;;;;;;;5061062;28;20463;-70
2021/01/22 11:25:39;;;;;;;1.53;1.10;;;;;;;;;;5064259;28;20532;-71
2021/01/22 11:28:06;;;;;;;1.97;1.27;;;;;;;;;;5063195;28;20480;-71
2021/01/22 11:30:33;;;;;;;1.80;1.03;;;;;;;;;;5065106;28;20480;-70
2021/01/22 11:32:59;;;;;;;1.90;1.20;;;;;;;;;;5064816;28;20448;-70
2021/01/22 11:35:27;;;;;;;1.40;1.00;;;;;;;;;;5059791;28;20481;-69
2021/01/22 11:37:54;;;;;;;1.67;1.03;;;;;;;;;;5063613;28;20555;-71
2021/01/22 11:40:20;;;;;;;3.33;1.40;;;;;;;;;;5047368;28;20972;-70
2021/01/22 11:42:47;;;;;;;1.73;1.00;;;;;;;;;;5061519;28;20457;-69
2021/01/22 11:45:14;;;;;;;2.30;1.10;;;;;;;;;;5063080;28;20460;-70
2021/01/22 11:47:41;;;;;;;1.43;0.97;;;;;;;;;;5054953;28;20490;-70
2021/01/22 11:50:08;;;;;;;3.10;1.50;;;;;;;;;;5062470;28;20445;-71
2021/01/22 11:52:36;;;;;;;3.83;1.40;;;;;;;;;;5050773;28;20461;-71
2021/01/22 11:55:03;;;;;;;2.60;1.50;;;;;;;;;;5060715;28;20477;-70
2021/01/22 11:57:29;;;;;;;1.30;1.10;;;;;;;;;;5051157;28;20465;-70
2021/01/22 11:59:56;;;;;;;5.70;1.60;;;;;;;;;;5060567;28;20454;-70
2021/01/22 12:02:22;;;;;;;1.70;1.20;;;;;;;;;;5045671;28;20522;-72
2021/01/22 12:04:49;;;;;;;2.07;1.30;;;;;;;;;;5059654;28;21276;-70
2021/01/22 12:07:16;;;;;;;1.83;1.50;;;;;;;;;;5049944;28;20461;-70
2021/01/22 12:09:43;;;;;;;2.80;1.17;;;;;;;;;;5062336;28;20760;-71
2021/01/22 12:12:10;;;;;;;2.23;1.40;;;;;;;;;;5049039;28;20481;-72
2021/01/22 12:14:37;;;;;;;2.07;1.57;;;;;;;;;;5060559;28;20461;-71
2021/01/22 12:17:03;;;;;;;3.13;1.73;;;;;;;;;;5056239;28;20461;-71
2021/01/22 12:19:30;;;;;;;3.30;1.90;;;;;;;;;;5062667;28;20458;-71
2021/01/22 12:21:56;;;;;;;4.37;1.80;;;;;;;;;;5052488;28;21612;-72
2021/01/22 12:24:23;;;;;;;3.90;1.57;;;;;;;;;;5062465;28;20464;-72
2021/01/22 12:26:50;;;;;;;3.50;2.20;;;;;;;;;;5057213;28;20438;-72
2021/01/22 12:29:17;;;;;;;2.13;1.80;;;;;;;;;;5056921;28;20461;-71
2021/01/22 12:31:44;;;;;;;4.97;2.40;;;;;;;;;;5061638;28;20473;-72
2021/01/22 12:34:10;;;;;;;5.03;2.80;;;;;;;;;;5045391;28;20470;-72
2021/01/22 12:36:37;;;;;;;3.30;2.63;;;;;;;;;;5062921;28;20535;-72
2021/01/22 12:39:04;;;;;;;3.40;1.90;;;;;;;;;;5052276;28;20461;-72
2021/01/22 12:41:33;;;;;;;2.83;2.10;;;;;;;;;;5065747;28;20824;-72
2021/01/22 12:44:00;;;;;;;3.40;2.30;;;;;;;;;;5047193;28;20463;-71
2021/01/22 12:46:27;;;;;;;4.97;3.37;;;;;;;;;;5065228;28;20456;-71
2021/01/22 12:48:54;;;;;;;8.93;5.43;;;;;;;;;;5046485;28;20460;-71
2021/01/22 12:51:21;;;;;;;6.77;4.83;;;;;;;;;;5059028;28;20482;-71
2021/01/22 12:53:48;;;;;;;7.00;3.80;;;;;;;;;;5052394;28;20463;-72
2021/01/22 12:56:14;;;;;;;3.20;2.87;;;;;;;;;;5064979;28;20477;-71
2021/01/22 12:58:41;;;;;;;4.60;2.77;;;;;;;;;;5052452;28;20469;-71
2021/01/22 13:01:08;;;;;;;2.73;2.10;;;;;;;;;;5058248;28;20855;-71
2021/01/22 13:03:35;;;;;;;2.47;1.80;;;;;;;;;;5053916;28;20963;-71
2021/01/22 13:06:01;;;;;;;2.63;1.73;;;;;;;;;;5053481;28;20449;-71
2021/01/22 13:08:28;;;;;;;6.50;2.03;;;;;;;;;;5059619;28;20952;-71
2021/01/22 13:10:55;;;;;;;5.30;2.43;;;;;;;;;;5043787;28;20488;-71
2021/01/22 13:13:22;;;;;;;5.70;2.40;;;;;;;;;;5055972;28;20462;-72
2021/01/22 13:15:49;;;;;;;2.50;1.80;;;;;;;;;;5051363;28;21067;-72
2021/01/22 13:18:16;;;;;;;2.10;1.90;;;;;;;;;;5061185;28;20441;-71
2021/01/22 13:20:43;;;;;;;4.23;2.03;;;;;;;;;;5048715;28;20476;-71
2021/01/22 13:23:10;;;;;;;5.10;1.73;;;;;;;;;;5061978;28;20987;-72
2021/01/22 13:25:36;;;;;;;3.17;1.97;;;;;;;;;;5054163;28;20457;-72
2021/01/22 13:28:03;;;;;;;5.53;1.80;;;;;;;;;;5063882;28;20451;-70
2021/01/22 13:30:30;;;;;;;2.70;1.80;;;;;;;;;;5051446;28;20483;-71
2021/01/22 13:32:57;;;;;;;2.40;2.00;;;;;;;;;;5055765;28;20846;-71
2021/01/22 13:35:24;;;;;;;2.60;2.07;;;;;;;;;;5052332;28;20476;-71
2021/01/22 13:37:51;;;;;;;2.33;1.90;;;;;;;;;;5061003;28;22060;-72
2021/01/22 13:40:17;;;;;;;3.27;2.40;;;;;;;;;;5052925;28;20517;-72
2021/01/22 13:42:44;;;;;;;9.80;3.00;;;;;;;;;;5062281;28;20440;-71
2021/01/22 13:45:11;;;;;;;7.77;3.23;;;;;;;;;;5054588;28;20506;-73
2021/01/22 13:47:38;;;;;;;2.60;2.20;;;;;;;;;;5057366;28;20457;-71
2021/01/22 13:50:05;;;;;;;3.87;2.50;;;;;;;;;;5048177;28;20465;-71
2021/01/22 13:52:33;;;;;;;2.63;1.90;;;;;;;;;;5058003;28;20467;-72
2021/01/22 13:54:59;;;;;;;2.10;1.73;;;;;;;;;;5048316;28;20567;-71
2021/01/22 13:57:26;;;;;;;2.70;2.03;;;;;;;;;;5055554;28;20549;-72
2021/01/22 13:59:53;;;;;;;5.00;2.53;;;;;;;;;;5056205;28;22540;-72
2021/01/22 14:02:19;;;;;;;3.70;2.37;;;;;;;;;;5056181;28;20469;-72
2021/01/22 14:04:46;;;;;;;3.63;2.37;;;;;;;;;;5049159;28;20506;-72
2021/01/22 14:07:12;;;;;;;4.17;2.30;;;;;;;;;;5042935;28;20891;-72
2021/01/22 14:09:40;;;;;;;4.43;2.10;;;;;;;;;;5052494;28;20456;-71
2021/01/22 14:12:08;;;;;;;3.50;2.50;;;;;;;;;;5052761;28;21012;-71
2021/01/22 14:14:35;;;;;;;2.43;2.20;;;;;;;;;;5051645;28;20447;-70
2021/01/22 14:17:01;;;;;;;2.43;2.00;;;;;;;;;;5046570;28;20472;-71
2021/01/22 14:19:28;;;;;;;3.13;2.83;;;;;;;;;;5050987;28;20449;-71
2021/01/22 14:21:54;;;;;;;6.43;4.00;;;;;;;;;;5049904;28;20547;-72
2021/01/22 14:24:21;;;;;;;2.90;2.57;;;;;;;;;;5059191;28;20441;-73
2021/01/22 14:26:48;;;;;;;3.97;2.23;;;;;;;;;;5053756;28;20980;-73
2021/01/22 14:29:15;;;;;;;2.73;2.20;;;;;;;;;;5062145;28;20445;-71
2021/01/22 14:31:42;;;;;;;5.63;2.17;;;;;;;;;;5056963;28;20480;-70
2021/01/22 14:34:08;;;;;;;3.10;1.90;;;;;;;;;;5057626;28;20827;-70
2021/01/22 14:36:35;;;;;;;2.97;2.57;;;;;;;;;;5046136;28;20602;-70
2021/01/22 14:39:01;;;;;;;5.97;2.43;;;;;;;;;;5055339;28;20471;-71
2021/01/22 14:41:28;;;;;;;2.63;2.10;;;;;;;;;;5051245;28;21409;-72
2021/01/22 14:43:55;;;;;;;3.17;1.80;;;;;;;;;;5060715;28;20448;-70
2021/01/22 14:46:22;;;;;;;4.90;1.80;;;;;;;;;;5055843;28;20449;-71